Huntingdon, United Kingdom
Current Conditions -  °F | °C
As of 8:20 AM on Tuesday 27 Jan 2015 (Local Time) from EGSC Reporting Station
Few Clouds Few Clouds  
Wind Chill: 33°   Ceiling: Unl
Heat Index: 39°   Visibility: 6mi
Dew Point: 37°   Wind: 9mph
Humidity: 93%   Direction: 260°W
Pressure: 30.33"   Gusts: NA
Location:  52.33°N, 0.19°W
Report Text: EGSC 270820Z 26008KT 9999 FEW049 04/03 Q1027
Loading
Personal Weather Stations






























Interactive Weather Map New forecast layout! Learn more

10-Day Weather Forecast

Advertisements
Track Severe Weather on mobile